createdAt,value
2022-11-07T00:02:12.143Z,100520.44
2022-11-07T00:04:40.590Z,100516.91
2022-11-07T00:07:09.338Z,100524.75
2022-11-07T00:09:38.966Z,100527.38
2022-11-07T00:12:08.100Z,100514.19
2022-11-07T00:14:36.890Z,100521.13
2022-11-07T00:17:05.104Z,100523.75
2022-11-07T00:19:33.963Z,100522.84
2022-11-07T00:22:02.519Z,100524.59
2022-11-07T00:24:31.077Z,100529.75
2022-11-07T00:27:00.763Z,100534.91
2022-11-07T00:29:29.014Z,100531.38
2022-11-07T00:31:58.950Z,100524.34
2022-11-07T00:34:27.466Z,100533.00
2022-11-07T00:36:55.667Z,100531.28
2022-11-07T00:39:24.150Z,100533.00
2022-11-07T00:41:52.637Z,100536.47
2022-11-07T00:44:22.787Z,100535.56
2022-11-07T00:46:51.045Z,100539.91
2022-11-07T00:49:19.582Z,100532.84
2022-11-07T00:51:48.173Z,100542.41
2022-11-07T00:54:16.355Z,100553.75
2022-11-07T00:56:44.531Z,100550.25
2022-11-07T00:59:13.093Z,100562.44
2022-11-07T01:01:42.770Z,100569.41
2022-11-07T01:04:32.361Z,100577.25
2022-11-07T01:07:00.920Z,100578.09
2022-11-07T01:09:29.405Z,100579.84
2022-11-07T01:11:57.731Z,100571.06
2022-11-07T01:14:26.401Z,100576.31
2022-11-07T01:16:56.001Z,100568.44
2022-11-07T01:19:24.484Z,100574.59
2022-11-07T01:21:52.989Z,100578.03
2022-11-07T01:24:21.510Z,100583.28
2022-11-07T01:26:51.738Z,100579.78
2022-11-07T01:29:21.183Z,100574.53
2022-11-07T01:31:49.643Z,100572.78
2022-11-07T01:34:19.448Z,100570.94
2022-11-07T01:36:47.690Z,100566.50
2022-11-07T01:39:16.290Z,100563.94
2022-11-07T01:41:44.867Z,100562.13
2022-11-07T01:44:53.469Z,100564.72
2022-11-07T01:47:23.304Z,100565.50
2022-11-07T01:49:54.212Z,100560.19
2022-11-07T01:52:27.826Z,100562.72
2022-11-07T01:55:01.948Z,100567.03
2022-11-07T01:57:35.348Z,100565.25
2022-11-07T02:00:09.284Z,100555.56
2022-11-07T02:02:38.470Z,100557.28
2022-11-07T02:05:10.098Z,100563.34
2022-11-07T02:07:39.310Z,100564.97
2022-11-07T02:10:09.499Z,100557.94
2022-11-07T02:12:38.295Z,100554.38
2022-11-07T02:15:10.758Z,100569.19
2022-11-07T02:17:39.073Z,100556.03
2022-11-07T02:20:10.197Z,100552.59
2022-11-07T02:22:46.641Z,100544.75
2022-11-07T02:25:19.572Z,100536.13
2022-11-07T02:27:51.523Z,100546.69
2022-11-07T02:30:23.553Z,100549.50
2022-11-07T02:32:51.851Z,100542.63
2022-11-07T02:35:45.578Z,100536.63
2022-11-07T02:38:20.820Z,100547.22
2022-11-07T02:40:55.376Z,100535.00
2022-11-07T02:43:28.169Z,100538.41
2022-11-07T02:45:59.917Z,100546.28
2022-11-07T02:48:30.814Z,100538.47
2022-11-07T02:50:59.613Z,100534.16
2022-11-07T02:53:28.099Z,100545.59
2022-11-07T02:55:57.643Z,100537.78
2022-11-07T02:58:25.854Z,100543.91
2022-11-07T03:00:54.085Z,100530.72
2022-11-07T03:03:22.606Z,100540.28
2022-11-07T03:05:50.892Z,100530.56
2022-11-07T03:08:19.241Z,100542.72
2022-11-07T03:10:47.738Z,100530.38
2022-11-07T03:13:17.711Z,100532.91
2022-11-07T03:15:46.238Z,100537.19
2022-11-07T03:18:14.443Z,100534.50
2022-11-07T03:20:42.671Z,100535.25
2022-11-07T03:23:11.265Z,100538.75
2022-11-07T03:25:40.073Z,100537.81
2022-11-07T03:28:08.723Z,100543.91
2022-11-07T03:30:38.261Z,100538.66
2022-11-07T03:33:06.458Z,100545.59
2022-11-07T03:35:34.715Z,100542.09
2022-11-07T03:38:03.025Z,100537.66
2022-11-07T03:40:31.538Z,100531.53
2022-11-07T03:42:59.728Z,100547.22
2022-11-07T03:45:28.123Z,100540.22
2022-11-07T03:47:57.672Z,100534.97
2022-11-07T03:50:25.941Z,100548.03
2022-11-07T03:52:54.333Z,100548.88
2022-11-07T03:55:22.600Z,100552.34
2022-11-07T03:57:50.822Z,100564.56
2022-11-07T04:00:19.429Z,100566.28
2022-11-07T04:02:48.273Z,100562.84
2022-11-07T04:05:18.093Z,100568.09
2022-11-07T04:07:46.286Z,100578.59
2022-11-07T04:10:14.480Z,100585.56
2022-11-07T04:13:00.718Z,100579.34
2022-11-07T04:15:46.400Z,100588.91
2022-11-07T04:18:15.022Z,100583.59
2022-11-07T04:20:44.552Z,100587.03
2022-11-07T04:23:13.446Z,100586.94
2022-11-07T04:25:59.783Z,100592.13
2022-11-07T04:28:28.337Z,100586.78
2022-11-07T04:30:56.535Z,100587.63
2022-11-07T04:33:24.811Z,100589.34
2022-11-07T04:35:54.338Z,100596.19
2022-11-07T04:38:23.011Z,100591.75
2022-11-07T04:40:55.339Z,100591.66
2022-11-07T04:43:24.146Z,100601.25
2022-11-07T04:45:53.100Z,100595.13
2022-11-07T04:48:21.682Z,100582.78
2022-11-07T04:50:50.776Z,100588.88
2022-11-07T04:53:20.427Z,100586.13
2022-11-07T04:55:48.979Z,100589.50
2022-11-07T04:58:17.474Z,100577.88
2022-11-07T05:00:45.658Z,100578.53
2022-11-07T05:03:14.388Z,100574.78
2022-11-07T05:05:43.131Z,100578.09
2022-11-07T05:08:11.402Z,100568.38
2022-11-07T05:10:41.876Z,100577.88
2022-11-07T05:13:11.686Z,100569.94
2022-11-07T05:15:40.827Z,100576.84
2022-11-07T05:18:11.175Z,100586.41
2022-11-07T05:20:40.861Z,100589.81
2022-11-07T05:23:12.974Z,100579.19
2022-11-07T05:25:45.054Z,100568.69
2022-11-07T05:28:15.735Z,100577.41
2022-11-07T05:30:45.696Z,100561.72
2022-11-07T05:33:17.135Z,100564.25
2022-11-07T05:35:46.872Z,100563.31
2022-11-07T05:38:15.367Z,100569.41
2022-11-07T05:40:45.231Z,100570.22
2022-11-07T05:43:16.160Z,100570.22
2022-11-07T05:45:44.958Z,100575.38
2022-11-07T05:48:14.849Z,100571.91
2022-11-07T05:50:43.247Z,100580.63
2022-11-07T05:53:11.981Z,100576.28
2022-11-07T05:55:40.434Z,100589.41
2022-11-07T05:58:13.815Z,100584.22
2022-11-07T06:00:42.834Z,100582.56
2022-11-07T06:03:11.784Z,100576.47
2022-11-07T06:05:41.437Z,100574.72
2022-11-07T06:08:12.684Z,100584.34
2022-11-07T06:10:43.371Z,100582.66
2022-11-07T06:13:15.664Z,100579.09
2022-11-07T06:15:45.889Z,100579.00
2022-11-07T06:18:17.867Z,100583.31
2022-11-07T06:20:46.528Z,100598.13
2022-11-07T06:23:15.610Z,100586.75
2022-11-07T06:25:44.481Z,100594.69
2022-11-07T06:28:15.600Z,100592.97
2022-11-07T06:30:44.460Z,100608.00
2022-11-07T06:33:16.937Z,100608.94
2022-11-07T06:35:46.629Z,100603.78
2022-11-07T06:38:16.274Z,100610.84
2022-11-07T06:40:45.780Z,100608.31
2022-11-07T06:43:18.906Z,100602.31
2022-11-07T06:45:48.465Z,100618.13
2022-11-07T06:48:17.148Z,100610.34
2022-11-07T06:50:45.445Z,100612.16
2022-11-07T06:53:15.109Z,100607.91
2022-11-07T06:55:43.756Z,100614.97
2022-11-07T06:58:12.242Z,100617.59
2022-11-07T07:00:41.883Z,100627.28
2022-11-07T07:03:11.277Z,100634.25
2022-11-07T07:05:39.989Z,100631.69
2022-11-07T07:08:09.108Z,100636.00
2022-11-07T07:10:40.102Z,100638.56
2022-11-07T07:13:08.379Z,100642.06
2022-11-07T07:15:49.991Z,100642.88
2022-11-07T07:18:21.607Z,100647.19
2022-11-07T07:20:50.722Z,100644.53
2022-11-07T07:23:20.562Z,100645.28
2022-11-07T07:25:49.336Z,100656.56
2022-11-07T07:28:17.524Z,100650.34
2022-11-07T07:30:51.444Z,100664.22
2022-11-07T07:33:22.069Z,100656.19
2022-11-07T07:35:50.558Z,100665.66
2022-11-07T07:38:19.060Z,100666.38
2022-11-07T07:40:47.584Z,100670.53
2022-11-07T07:43:16.411Z,100659.06
2022-11-07T07:45:44.756Z,100665.06
2022-11-07T07:48:13.011Z,100674.56
2022-11-07T07:50:42.587Z,100664.88
2022-11-07T07:53:10.784Z,100673.59
2022-11-07T07:55:39.046Z,100662.09
2022-11-07T07:58:07.253Z,100669.03
2022-11-07T08:00:35.951Z,100675.94
2022-11-07T08:03:05.265Z,100680.16
2022-11-07T08:05:33.495Z,100670.28
2022-11-07T08:08:03.221Z,100678.91
2022-11-07T08:10:47.190Z,100672.75
2022-11-07T08:13:15.808Z,100664.84
2022-11-07T08:15:44.259Z,100675.28
2022-11-07T08:18:12.603Z,100672.63
2022-11-07T08:20:40.925Z,100680.53
2022-11-07T08:23:16.411Z,100678.78
2022-11-07T08:25:50.935Z,100678.78
2022-11-07T08:28:20.608Z,100677.09
2022-11-07T08:30:56.858Z,100682.25
2022-11-07T08:33:25.215Z,100677.69
2022-11-07T08:35:55.533Z,100680.13
2022-11-07T08:38:25.626Z,100677.22
2022-11-07T08:40:54.430Z,100666.44
2022-11-07T08:43:22.775Z,100679.38
2022-11-07T08:45:53.280Z,100680.88
2022-11-07T08:48:22.349Z,100686.91
2022-11-07T08:50:53.836Z,100680.66
2022-11-07T08:53:22.142Z,100670.13
2022-11-07T08:55:52.027Z,100671.78
2022-11-07T08:58:22.628Z,100687.38
2022-11-07T09:00:53.350Z,100683.81
2022-11-07T09:03:44.256Z,100685.63
2022-11-07T09:06:10.455Z,100672.44
2022-11-07T09:08:38.667Z,100684.53
2022-11-07T09:11:08.462Z,100705.31
2022-11-07T09:13:36.812Z,100698.13
2022-11-07T09:16:06.763Z,100690.94
2022-11-07T09:18:35.154Z,100693.59
2022-11-07T09:21:03.395Z,100684.91
2022-11-07T09:23:32.025Z,100694.63
2022-11-07T09:26:01.316Z,100696.56
2022-11-07T09:28:31.120Z,100693.09
2022-11-07T09:31:00.930Z,100699.31
2022-11-07T09:33:29.845Z,100679.06
2022-11-07T09:36:01.229Z,100685.97
2022-11-07T09:38:30.715Z,100682.38
2022-11-07T09:41:06.559Z,100688.44
2022-11-07T09:44:04.862Z,100688.44
2022-11-07T09:46:46.314Z,100699.72
2022-11-07T09:49:20.721Z,100691.75
2022-11-07T09:51:54.649Z,100695.97
2022-11-07T09:54:28.371Z,100696.69
2022-11-07T09:56:59.515Z,100705.41
2022-11-07T09:59:37.374Z,100710.72
2022-11-07T10:02:12.882Z,100699.34
2022-11-07T10:04:41.382Z,100707.28
2022-11-07T10:07:21.684Z,100710.81
2022-11-07T10:09:59.238Z,100724.78
2022-11-07T10:12:57.066Z,100716.75
2022-11-07T10:15:33.099Z,100713.88
2022-11-07T10:18:13.635Z,100714.66
2022-11-07T10:21:16.048Z,100719.69
2022-11-07T10:24:02.217Z,100724.63
2022-11-07T10:26:31.716Z,100726.66
2022-11-07T10:29:04.167Z,100721.81
2022-11-07T10:31:39.434Z,100724.66
2022-11-07T10:34:20.819Z,100731.09
2022-11-07T10:36:49.140Z,100722.69
2022-11-07T10:39:22.666Z,100726.81
2022-11-07T10:42:04.154Z,100721.28
2022-11-07T10:44:33.024Z,100716.38
2022-11-07T10:47:03.581Z,100728.41
2022-11-07T10:49:33.716Z,100718.84
2022-11-07T10:52:18.557Z,100720.88
2022-11-07T10:54:47.065Z,100716.56
2022-11-07T10:57:18.459Z,100721.16
2022-11-07T10:59:56.554Z,100716.00
2022-11-07T11:02:29.912Z,100716.63
2022-11-07T11:05:02.411Z,100714.63
2022-11-07T11:07:36.641Z,100713.56
2022-11-07T11:10:19.364Z,100712.50
2022-11-07T11:12:49.174Z,100707.75
2022-11-07T11:15:20.246Z,100696.81
2022-11-07T11:18:00.490Z,100703.50
2022-11-07T11:20:38.583Z,100699.66
2022-11-07T11:23:15.825Z,100704.75
2022-11-07T11:25:46.434Z,100693.91
2022-11-07T11:28:25.325Z,100692.06
2022-11-07T11:31:01.088Z,100681.50
2022-11-07T11:33:41.099Z,100674.34
2022-11-07T11:36:18.446Z,100676.94
2022-11-07T11:38:54.375Z,100684.78
2022-11-07T11:41:29.071Z,100668.94
2022-11-07T11:44:04.764Z,100674.69
2022-11-07T11:46:41.404Z,100662.34
2022-11-07T11:49:20.690Z,100664.88
2022-11-07T11:51:55.051Z,100661.88
2022-11-07T11:54:23.556Z,100665.44
2022-11-07T11:56:54.580Z,100659.66
2022-11-07T11:59:58.483Z,100654.41
2022-11-07T12:03:09.731Z,100654.44
2022-11-07T12:06:03.256Z,100663.44
2022-11-07T12:08:52.954Z,100664.66
2022-11-07T12:11:30.647Z,100655.88
2022-11-07T12:14:12.267Z,100647.63
2022-11-07T12:16:50.076Z,100653.91
2022-11-07T12:19:27.951Z,100654.59
2022-11-07T12:22:09.538Z,100663.91
2022-11-07T12:24:48.443Z,100658.94
2022-11-07T12:27:29.338Z,100657.63
2022-11-07T12:30:16.792Z,100641.03
2022-11-07T12:33:02.367Z,100649.19
2022-11-07T12:35:45.474Z,100652.19
2022-11-07T12:38:50.682Z,100650.75
2022-11-07T12:41:30.206Z,100661.31
2022-11-07T12:44:19.643Z,100649.09
2022-11-07T12:46:54.186Z,100646.78
2022-11-07T12:49:47.687Z,100646.47
2022-11-07T12:52:35.972Z,100639.31
2022-11-07T12:55:20.224Z,100648.84
2022-11-07T12:57:51.943Z,100634.28
2022-11-07T13:00:28.771Z,100638.34
2022-11-07T13:03:19.596Z,100630.53
2022-11-07T13:06:03.587Z,100645.25
2022-11-07T13:08:39.540Z,100637.31
2022-11-07T13:11:20.306Z,100632.59
2022-11-07T13:14:07.531Z,100656.03
2022-11-07T13:16:37.917Z,100644.16
2022-11-07T13:19:29.435Z,100649.13
2022-11-07T13:22:03.158Z,100646.72
2022-11-07T13:24:32.703Z,100635.47
2022-11-07T13:27:02.526Z,100627.59
2022-11-07T13:29:37.861Z,100637.31
2022-11-07T13:32:10.014Z,100637.25
2022-11-07T13:34:56.088Z,100623.81
2022-11-07T13:37:30.668Z,100622.16
2022-11-07T13:40:13.017Z,100617.13
2022-11-07T13:42:44.999Z,100619.22
2022-11-07T13:45:27.689Z,100624.84
2022-11-07T13:48:00.504Z,100625.28
2022-11-07T13:50:50.522Z,100624.25
2022-11-07T13:53:25.839Z,100616.00
2022-11-07T13:56:02.594Z,100623.38
2022-11-07T13:58:36.883Z,100629.06
2022-11-07T14:01:10.862Z,100620.69
2022-11-07T14:03:39.874Z,100623.72
2022-11-07T14:06:08.803Z,100626.66
2022-11-07T14:08:41.494Z,100628.78
2022-11-07T14:11:18.995Z,100643.16
2022-11-07T14:13:51.954Z,100634.66
2022-11-07T14:16:23.815Z,100640.16
2022-11-07T14:18:57.701Z,100642.97
2022-11-07T14:21:30.372Z,100646.84
2022-11-07T14:23:59.276Z,100644.34
2022-11-07T14:26:30.730Z,100661.25
2022-11-07T14:29:01.589Z,100652.66
2022-11-07T14:31:32.859Z,100654.59
2022-11-07T14:34:03.945Z,100651.22
2022-11-07T14:36:32.540Z,100660.22
2022-11-07T14:39:08.878Z,100654.16
2022-11-07T14:41:44.147Z,100652.56
2022-11-07T14:44:17.743Z,100650.06
2022-11-07T14:46:47.374Z,100646.63
2022-11-07T14:49:25.111Z,100649.41
2022-11-07T14:51:54.678Z,100645.03
2022-11-07T14:54:27.799Z,100652.97
2022-11-07T14:56:57.796Z,100650.47
2022-11-07T14:59:33.291Z,100651.44
2022-11-07T15:02:19.142Z,100655.88
2022-11-07T15:04:49.583Z,100652.44
2022-11-07T15:07:25.195Z,100648.06
2022-11-07T15:09:55.040Z,100654.28
2022-11-07T15:12:26.174Z,100645.50
2022-11-07T15:15:12.034Z,100645.63
2022-11-07T15:17:47.493Z,100650.06
2022-11-07T15:20:24.003Z,100650.97
2022-11-07T15:22:52.572Z,100645.78
2022-11-07T15:25:33.322Z,100651.09
2022-11-07T15:28:20.479Z,100647.69
2022-11-07T15:30:51.463Z,100645.94
2022-11-07T15:33:20.803Z,100649.53
2022-11-07T15:35:51.433Z,100661.03
2022-11-07T15:38:22.095Z,100651.50
2022-11-07T15:40:51.465Z,100660.34
2022-11-07T15:43:20.593Z,100656.00
2022-11-07T15:45:52.825Z,100663.94
2022-11-07T15:48:23.890Z,100662.19
2022-11-07T15:50:52.446Z,100658.78
2022-11-07T15:53:24.170Z,100671.03
2022-11-07T15:55:54.300Z,100661.47
2022-11-07T15:58:25.546Z,100660.63
2022-11-07T16:00:56.252Z,100672.09
2022-11-07T16:03:27.260Z,100664.31
2022-11-07T16:06:01.600Z,100663.44
2022-11-07T16:08:31.513Z,100660.88
2022-11-07T16:11:01.632Z,100656.66
2022-11-07T16:13:30.366Z,100652.41
2022-11-07T16:16:02.813Z,100655.16
2022-11-07T16:18:40.397Z,100645.66
2022-11-07T16:21:08.955Z,100644.06
2022-11-07T16:23:37.198Z,100647.63
2022-11-07T16:26:06.037Z,100652.19
2022-11-07T16:28:36.170Z,100655.81
2022-11-07T16:31:06.207Z,100662.22
2022-11-07T16:33:35.835Z,100665.97
2022-11-07T16:36:17.470Z,100674.13
2022-11-07T16:38:46.022Z,100675.22
2022-11-07T16:41:14.845Z,100673.59
2022-11-07T16:43:43.599Z,100670.31
2022-11-07T16:46:18.515Z,100682.00
2022-11-07T16:48:48.759Z,100675.25
2022-11-07T16:51:18.800Z,100670.16
2022-11-07T16:53:47.387Z,100666.00
2022-11-07T16:56:27.623Z,100668.91
2022-11-07T16:58:56.409Z,100662.03
2022-11-07T17:01:27.698Z,100662.19
2022-11-07T17:03:56.501Z,100665.03
2022-11-07T17:06:30.495Z,100664.22
2022-11-07T17:09:06.099Z,100664.31
2022-11-07T17:11:39.577Z,100670.56
2022-11-07T17:14:08.079Z,100672.38
2022-11-07T17:16:38.309Z,100661.09
2022-11-07T17:19:07.122Z,100663.75
2022-11-07T17:21:37.346Z,100665.53
2022-11-07T17:24:07.264Z,100656.69
2022-11-07T17:26:38.746Z,100662.81
2022-11-07T17:29:09.845Z,100670.78
2022-11-07T17:31:39.422Z,100661.19
2022-11-07T17:34:07.962Z,100660.28
2022-11-07T17:36:40.255Z,100662.06
2022-11-07T17:39:12.294Z,100667.34
2022-11-07T17:41:41.572Z,100665.63
2022-11-07T17:44:10.024Z,100672.72
2022-11-07T17:46:44.265Z,100683.22
2022-11-07T17:49:16.654Z,100685.97
2022-11-07T17:51:45.802Z,100683.38
2022-11-07T17:54:16.386Z,100679.94
2022-11-07T17:56:45.184Z,100682.66
2022-11-07T17:59:18.490Z,100683.59
2022-11-07T18:01:49.350Z,100676.63
2022-11-07T18:04:18.020Z,100678.44
2022-11-07T18:06:46.550Z,100683.72
2022-11-07T18:09:16.456Z,100678.44
2022-11-07T18:11:45.379Z,100676.72
2022-11-07T18:14:14.886Z,100676.72
2022-11-07T18:16:43.218Z,100676.72
2022-11-07T18:19:12.774Z,100681.88
2022-11-07T18:21:41.288Z,100687.91
2022-11-07T18:24:10.713Z,100679.94
2022-11-07T18:26:39.860Z,100679.94
2022-11-07T18:29:11.507Z,100682.56
2022-11-07T18:31:41.353Z,100673.81
2022-11-07T18:34:13.880Z,100672.94
2022-11-07T18:36:44.326Z,100674.72
2022-11-07T18:39:16.169Z,100673.91
2022-11-07T18:41:45.003Z,100673.16
2022-11-07T18:44:13.641Z,100668.00
2022-11-07T18:46:42.754Z,100669.84
2022-11-07T18:49:14.617Z,100669.94
2022-11-07T18:51:44.048Z,100669.09
2022-11-07T18:54:14.351Z,100666.53
2022-11-07T18:56:43.865Z,100663.06
2022-11-07T18:59:12.675Z,100663.16
2022-11-07T19:01:41.480Z,100662.41
2022-11-07T19:04:11.425Z,100662.56
2022-11-07T19:06:55.614Z,100665.41
2022-11-07T19:09:28.966Z,100668.13
2022-11-07T19:11:59.671Z,100666.47
2022-11-07T19:14:32.207Z,100668.41
2022-11-07T19:17:02.296Z,100665.00
2022-11-07T19:19:30.825Z,100675.66
2022-11-07T19:22:00.351Z,100667.00
2022-11-07T19:24:28.512Z,100679.34
2022-11-07T19:26:56.759Z,100675.84
2022-11-07T19:29:25.844Z,100675.84
2022-11-07T19:31:54.152Z,100673.22
2022-11-07T19:34:22.669Z,100667.16
2022-11-07T19:36:51.148Z,100660.16
2022-11-07T19:39:20.746Z,100666.34
2022-11-07T19:41:49.316Z,100673.44
2022-11-07T19:44:18.067Z,100681.38
2022-11-07T19:46:46.372Z,100677.09
2022-11-07T19:49:14.956Z,100684.16
2022-11-07T19:51:43.137Z,100676.44
2022-11-07T19:54:11.810Z,100686.16
2022-11-07T19:56:41.408Z,100679.25
2022-11-07T19:59:10.475Z,100680.22
2022-11-07T20:01:40.153Z,100677.78
2022-11-07T20:04:09.616Z,100683.16
2022-11-07T20:06:39.436Z,100686.78
2022-11-07T20:09:10.961Z,100678.19
2022-11-07T20:11:39.403Z,100687.97
2022-11-07T20:14:09.052Z,100681.09
2022-11-07T20:16:37.817Z,100688.19
2022-11-07T20:19:06.595Z,100682.09
2022-11-07T20:21:35.126Z,100686.59
2022-11-07T20:24:05.412Z,100685.84
2022-11-07T20:26:34.191Z,100677.13
2022-11-07T20:29:03.122Z,100685.09
2022-11-07T20:31:36.644Z,100686.13
2022-11-07T20:34:07.624Z,100682.75
2022-11-07T20:36:36.230Z,100684.66
2022-11-07T20:39:05.269Z,100689.22
2022-11-07T20:41:34.073Z,100695.50
2022-11-07T20:44:05.743Z,100688.66
2022-11-07T20:46:39.138Z,100690.50
2022-11-07T20:49:11.514Z,100698.56
2022-11-07T20:51:40.258Z,100696.00
2022-11-07T20:54:10.299Z,100694.31
2022-11-07T20:56:39.250Z,100697.94
2022-11-07T20:59:09.484Z,100695.38
2022-11-07T21:01:39.408Z,100698.94
2022-11-07T21:04:11.570Z,100700.81
2022-11-07T21:06:40.151Z,100700.00
2022-11-07T21:09:09.125Z,100700.03
2022-11-07T21:11:37.729Z,100702.72
2022-11-07T21:14:06.259Z,100700.09
2022-11-07T21:16:34.552Z,100696.59
2022-11-07T21:19:05.731Z,100694.88
2022-11-07T21:21:34.703Z,100692.31
2022-11-07T21:24:03.909Z,100686.22
2022-11-07T21:26:35.514Z,100690.69
2022-11-07T21:29:06.871Z,100684.66
2022-11-07T21:31:36.952Z,100686.56
2022-11-07T21:34:09.125Z,100663.97
2022-11-07T21:36:37.693Z,100668.53
2022-11-07T21:39:07.303Z,100673.09
2022-11-07T21:41:36.817Z,100673.25
2022-11-07T21:44:05.522Z,100669.88
2022-11-07T21:46:35.262Z,100670.81
2022-11-07T21:49:04.854Z,100671.75
2022-11-07T21:51:35.732Z,100670.97
2022-11-07T21:54:05.551Z,100669.22
2022-11-07T21:56:36.498Z,100663.16
2022-11-07T21:59:07.601Z,100655.38
2022-11-07T22:01:37.333Z,100657.19
2022-11-07T22:04:09.860Z,100656.41
2022-11-07T22:06:43.251Z,100653.06
2022-11-07T22:09:15.839Z,100648.78
2022-11-07T22:11:44.688Z,100654.97
2022-11-07T22:14:15.665Z,100644.53
2022-11-07T22:16:44.243Z,100644.66
2022-11-07T22:19:13.284Z,100635.13
2022-11-07T22:21:43.299Z,100643.09
2022-11-07T22:24:12.095Z,100638.81
2022-11-07T22:26:40.513Z,100640.69
2022-11-07T22:29:09.218Z,100633.75
2022-11-07T22:31:37.810Z,100638.13
2022-11-07T22:34:06.007Z,100627.66
2022-11-07T22:36:34.496Z,100631.09
2022-11-07T22:39:04.528Z,100625.88
2022-11-07T22:41:33.086Z,100619.69
2022-11-07T22:44:01.634Z,100618.69
2022-11-07T22:46:31.927Z,100613.44
2022-11-07T22:49:01.285Z,100611.59
2022-11-07T22:51:32.421Z,100608.09
2022-11-07T22:54:05.410Z,100605.47
2022-11-07T22:56:35.383Z,100615.16
2022-11-07T22:59:03.866Z,100603.78
2022-11-07T23:01:35.358Z,100601.13
2022-11-07T23:04:04.269Z,100593.25
2022-11-07T23:06:32.802Z,100602.88
2022-11-07T23:09:03.690Z,100604.56
2022-11-07T23:11:50.312Z,100615.06
2022-11-07T23:14:22.569Z,100603.66
2022-11-07T23:16:53.433Z,100607.16
2022-11-07T23:19:24.495Z,100604.50
2022-11-07T23:21:53.361Z,100605.34
2022-11-07T23:24:23.417Z,100607.94
2022-11-07T23:26:51.791Z,100603.47
2022-11-07T23:29:22.845Z,100602.53
2022-11-07T23:31:52.749Z,100611.25
2022-11-07T23:34:23.358Z,100612.88
2022-11-07T23:36:52.723Z,100604.16
2022-11-07T23:39:25.870Z,100604.09
2022-11-07T23:41:54.459Z,100605.84
2022-11-07T23:44:22.932Z,100601.44
2022-11-07T23:47:08.866Z,100608.47
2022-11-07T23:49:55.076Z,100611.97
2022-11-07T23:52:23.961Z,100611.16
2022-11-07T23:55:10.949Z,100609.41
2022-11-07T23:57:53.430Z,100598.13
